Time;durP1;ratioP1;P1;durP2;ratioP2;P2;SDS_P1;SDS_P2;PMS_P1;PMS_P2;Temp;Humidity;BMP_temperature;BMP_pressure;BME280_temperature;BME280_humidity;BME280_pressure;Samples;Min_cycle;Max_cycle;Signal;HPM_P1;HPM_P2
2023/09/15 04:01:23;;;;;;;0.60;0.10;;;15.60;81.40;;;;;;5529526;23;20505;-75
2023/09/15 04:03:52;;;;;;;0.60;0.10;;;15.50;84.20;;;;;;4995429;28;20483;-76
2023/09/15 04:06:20;;;;;;;0.60;0.10;;;15.50;87.40;;;;;;4992218;28;20799;-76
2023/09/15 04:08:48;;;;;;;0.60;0.10;;;15.50;87.30;;;;;;5001192;28;20820;-74
2023/09/15 04:11:16;;;;;;;0.60;0.10;;;15.60;87.80;;;;;;4988441;28;20892;-75
2023/09/15 04:13:44;;;;;;;0.60;0.10;;;15.60;88.80;;;;;;4973459;28;20524;-74
2023/09/15 04:16:12;;;;;;;0.60;0.30;;;15.60;85.30;;;;;;4975717;28;20527;-73
2023/09/15 04:18:41;;;;;;;0.60;0.10;;;15.60;85.50;;;;;;4981937;28;20461;-73
2023/09/15 04:21:10;;;;;;;0.60;0.10;;;15.60;88.30;;;;;;4972346;28;20468;-74
2023/09/15 04:23:38;;;;;;;0.60;0.10;;;15.60;90.10;;;;;;4980098;28;20544;-74
2023/09/15 04:26:05;;;;;;;0.60;0.10;;;15.60;85.30;;;;;;4980700;28;20507;-73
2023/09/15 04:28:33;;;;;;;0.60;0.10;;;15.50;82.60;;;;;;4972989;28;20515;-73
2023/09/15 04:31:01;;;;;;;3.63;1.93;;;15.50;89.50;;;;;;4983940;28;20506;-72
2023/09/15 04:33:29;;;;;;;0.60;0.30;;;15.50;90.00;;;;;;4976587;28;20445;-73
2023/09/15 04:35:59;;;;;;;0.60;0.10;;;15.50;87.90;;;;;;4983973;28;21015;-75
2023/09/15 04:38:27;;;;;;;0.60;0.10;;;;;;;;;;4981253;28;20487;-73
2023/09/15 04:40:55;;;;;;;0.60;0.20;;;15.50;89.30;;;;;;4982276;28;20983;-74
2023/09/15 04:43:23;;;;;;;0.60;0.13;;;15.50;91.00;;;;;;4989862;28;20539;-72
2023/09/15 04:45:51;;;;;;;0.60;0.10;;;15.50;90.40;;;;;;4984126;28;20511;-74
2023/09/15 04:48:19;;;;;;;0.60;0.20;;;15.40;90.50;;;;;;4978425;28;20460;-74
2023/09/15 04:50:47;;;;;;;0.60;0.10;;;15.40;89.10;;;;;;4984128;28;20552;-72
2023/09/15 04:53:16;;;;;;;0.60;0.20;;;15.50;92.10;;;;;;4985778;28;20492;-73
2023/09/15 04:55:44;;;;;;;0.60;0.10;;;15.50;92.60;;;;;;4982331;28;20506;-72
2023/09/15 04:58:12;;;;;;;0.60;0.10;;;15.50;97.70;;;;;;4993412;28;20547;-72
2023/09/15 05:00:40;;;;;;;0.60;0.10;;;15.50;91.80;;;;;;4988096;28;20484;-74
2023/09/15 05:03:08;;;;;;;0.60;0.10;;;15.60;90.50;;;;;;4982025;28;20504;-73
2023/09/15 05:05:36;;;;;;;0.60;0.20;;;15.60;90.80;;;;;;4989856;28;21038;-73
2023/09/15 05:08:05;;;;;;;0.60;0.10;;;15.60;90.80;;;;;;4983878;28;20536;-74
2023/09/15 05:10:34;;;;;;;0.60;0.10;;;15.50;87.50;;;;;;4981263;28;20567;-74
2023/09/15 05:13:05;;;;;;;3.27;0.67;;;15.40;87.80;;;;;;4987302;28;20487;-75
2023/09/15 05:15:34;;;;;;;0.60;0.10;;;15.40;90.10;;;;;;4984529;28;20562;-73
2023/09/15 05:18:02;;;;;;;0.60;0.10;;;15.30;90.80;;;;;;4982444;28;20457;-73
2023/09/15 05:20:30;;;;;;;0.90;0.20;;;15.20;89.60;;;;;;5004288;28;20759;-75
2023/09/15 05:22:57;;;;;;;0.70;0.50;;;15.10;90.00;;;;;;4997143;28;20454;-72
2023/09/15 05:25:25;;;;;;;0.60;0.10;;;15.00;91.90;;;;;;4988407;28;20484;-74
2023/09/15 05:27:55;;;;;;;0.60;0.10;;;15.00;93.10;;;;;;4988474;28;20471;-73
2023/09/15 05:30:23;;;;;;;0.97;0.40;;;15.00;96.60;;;;;;4979517;28;20954;-73
2023/09/15 05:32:50;;;;;;;0.60;0.10;;;15.00;97.80;;;;;;4976244;28;20516;-74
2023/09/15 05:35:19;;;;;;;0.60;0.10;;;15.10;98.00;;;;;;4975443;28;20444;-73
2023/09/15 05:37:49;;;;;;;0.60;0.10;;;;;;;;;;4975723;28;20445;-75
2023/09/15 05:40:17;;;;;;;0.60;0.20;;;15.30;98.30;;;;;;4976461;28;20473;-73
2023/09/15 05:42:45;;;;;;;0.60;0.10;;;15.40;98.40;;;;;;4974852;28;20452;-74
2023/09/15 05:45:15;;;;;;;0.70;0.50;;;15.40;97.40;;;;;;4974448;28;20484;-74
2023/09/15 05:47:43;;;;;;;0.60;0.10;;;15.50;94.30;;;;;;4983857;28;20469;-72
2023/09/15 05:50:12;;;;;;;0.60;0.10;;;15.50;93.90;;;;;;4985877;28;20450;-72
2023/09/15 05:52:40;;;;;;;0.60;0.10;;;15.50;94.70;;;;;;4986950;28;20449;-72
2023/09/15 05:55:08;;;;;;;0.60;0.10;;;15.50;94.90;;;;;;4993089;28;20923;-74
2023/09/15 05:57:36;;;;;;;0.60;0.10;;;15.50;91.40;;;;;;4975611;28;20442;-72
2023/09/15 06:00:06;;;;;;;0.60;0.10;;;15.50;92.80;;;;;;4975678;28;20449;-73
2023/09/15 06:02:35;;;;;;;0.60;0.10;;;15.50;93.80;;;;;;4974744;28;20583;-73
2023/09/15 06:05:03;;;;;;;0.60;0.13;;;15.50;94.30;;;;;;4990677;28;20563;-74
2023/09/15 06:07:30;;;;;;;0.60;0.20;;;15.50;94.00;;;;;;4974944;28;20481;-73
2023/09/15 06:09:58;;;;;;;0.60;0.10;;;15.50;94.10;;;;;;4983809;28;20460;-73
2023/09/15 06:12:26;;;;;;;0.60;0.10;;;15.50;95.50;;;;;;4994899;28;20469;-72
2023/09/15 06:14:56;;;;;;;0.60;0.20;;;15.50;92.90;;;;;;4986325;28;20536;-73
2023/09/15 06:17:24;;;;;;;0.60;0.10;;;15.30;93.20;;;;;;4979324;28;20488;-72
2023/09/15 06:19:56;;;;;;;0.60;0.10;;;15.20;93.20;;;;;;4979405;28;20453;-75
2023/09/15 06:22:24;;;;;;;0.60;0.13;;;15.10;96.30;;;;;;4988884;28;20531;-72
2023/09/15 06:24:52;;;;;;;0.60;0.10;;;15.20;97.60;;;;;;4989011;28;20846;-75
2023/09/15 06:27:20;;;;;;;0.60;0.10;;;15.30;99.90;;;;;;4994578;28;20444;-73
2023/09/15 06:29:48;;;;;;;1.33;1.03;;;;;;;;;;4988370;28;20453;-73
2023/09/15 06:32:16;;;;;;;0.60;0.10;;;15.40;99.90;;;;;;4977538;28;20837;-74
2023/09/15 06:34:44;;;;;;;0.60;0.20;;;15.50;97.30;;;;;;4980673;28;20488;-74
2023/09/15 06:37:13;;;;;;;0.60;0.10;;;15.50;97.40;;;;;;4977735;28;20845;-74
2023/09/15 06:39:42;;;;;;;0.60;0.20;;;15.50;97.60;;;;;;4988463;28;20886;-75
2023/09/15 06:42:10;;;;;;;0.60;0.17;;;15.50;97.10;;;;;;4991846;28;20474;-74
2023/09/15 06:44:38;;;;;;;0.60;0.10;;;15.50;98.40;;;;;;4979388;28;20485;-70
2023/09/15 06:47:07;;;;;;;0.60;0.10;;;15.50;99.90;;;;;;4973984;28;20495;-72
2023/09/15 06:49:35;;;;;;;0.60;0.10;;;15.60;99.90;;;;;;4980019;28;20517;-75
2023/09/15 06:52:06;;;;;;;0.60;0.10;;;15.70;98.30;;;;;;4976095;28;20469;-76
2023/09/15 06:54:36;;;;;;;0.70;0.40;;;15.60;95.70;;;;;;4977550;28;20461;-76
2023/09/15 06:57:05;;;;;;;0.90;0.60;;;15.50;95.60;;;;;;4981539;28;20496;-77
2023/09/15 06:59:33;;;;;;;0.60;0.20;;;15.30;97.30;;;;;;4988838;28;20452;-76
2023/09/15 07:02:02;;;;;;;0.60;0.10;;;15.20;98.90;;;;;;4975887;28;20473;-77
2023/09/15 07:04:31;;;;;;;0.60;0.10;;;15.20;99.90;;;;;;4975540;28;20456;-77
2023/09/15 07:06:59;;;;;;;1.47;1.37;;;15.20;99.90;;;;;;4973530;28;20457;-78
2023/09/15 07:09:27;;;;;;;0.80;0.57;;;15.30;99.90;;;;;;4973416;28;20481;-77
2023/09/15 07:11:56;;;;;;;0.60;0.10;;;15.40;99.90;;;;;;4973804;28;20999;-76
2023/09/15 07:14:25;;;;;;;0.60;0.10;;;15.40;99.90;;;;;;4988845;28;20455;-76
2023/09/15 07:16:53;;;;;;;0.60;0.10;;;15.40;99.90;;;;;;4994451;28;20531;-78
2023/09/15 07:19:21;;;;;;;0.60;0.20;;;15.40;99.90;;;;;;4994184;28;20458;-77
2023/09/15 07:21:49;;;;;;;1.17;1.07;;;;;;;;;;4994162;28;20551;-77
2023/09/15 07:24:17;;;;;;;1.70;1.60;;;15.40;99.90;;;;;;4993046;28;20937;-77
2023/09/15 07:26:45;;;;;;;0.60;0.10;;;15.50;99.90;;;;;;4993241;28;20561;-77
2023/09/15 07:29:14;;;;;;;0.60;0.10;;;15.50;99.90;;;;;;4988100;28;20969;-77
2023/09/15 07:31:42;;;;;;;0.60;0.10;;;15.50;99.90;;;;;;4989261;28;20893;-77
2023/09/15 07:34:12;;;;;;;0.60;0.10;;;15.60;99.90;;;;;;4983608;28;20448;-78
2023/09/15 07:36:40;;;;;;;0.60;0.10;;;15.60;99.90;;;;;;4991752;28;20527;-78
2023/09/15 07:39:08;;;;;;;0.60;0.10;;;15.60;99.90;;;;;;4990253;28;20445;-78
2023/09/15 07:41:36;;;;;;;0.60;0.13;;;15.70;99.90;;;;;;4987690;28;20473;-78
2023/09/15 07:44:07;;;;;;;0.90;0.40;;;15.70;99.90;;;;;;4976997;28;20553;-77
2023/09/15 07:46:36;;;;;;;0.60;0.10;;;;;;;;;;4977656;28;21047;-77
2023/09/15 07:49:04;;;;;;;0.60;0.10;;;15.80;99.90;;;;;;4977372;28;21251;-77
2023/09/15 07:51:32;;;;;;;0.60;0.20;;;15.90;99.90;;;;;;4991645;28;20473;-77
2023/09/15 07:54:00;;;;;;;0.60;0.10;;;15.90;99.90;;;;;;4994348;28;20457;-78
2023/09/15 07:56:28;;;;;;;0.60;0.10;;;16.00;99.90;;;;;;4994403;28;20436;-78
2023/09/15 07:58:56;;;;;;;0.60;0.20;;;16.10;99.90;;;;;;4995784;28;20966;-78
2023/09/15 08:01:24;;;;;;;0.60;0.30;;;16.10;99.90;;;;;;4988571;28;20532;-77
2023/09/15 08:03:54;;;;;;;0.60;0.10;;;16.10;99.90;;;;;;4975585;28;20469;-77
2023/09/15 08:06:22;;;;;;;0.60;0.10;;;;;;;;;;4995505;28;20481;-77
2023/09/15 08:08:50;;;;;;;0.60;0.10;;;16.20;99.90;;;;;;4993535;28;21054;-77
2023/09/15 08:11:18;;;;;;;0.60;0.10;;;16.30;99.90;;;;;;4993294;28;20856;-77
2023/09/15 08:13:46;;;;;;;0.60;0.10;;;16.40;99.90;;;;;;4983728;28;20858;-78
2023/09/15 08:16:14;;;;;;;0.60;0.10;;;16.40;99.90;;;;;;4984904;28;20454;-76
2023/09/15 08:18:43;;;;;;;0.60;0.10;;;16.50;99.90;;;;;;4994716;28;20528;-76
2023/09/15 08:21:12;;;;;;;0.60;0.10;;;;;;;;;;4982134;28;20504;-78
2023/09/15 08:23:40;;;;;;;0.60;0.10;;;16.60;99.90;;;;;;4984870;28;20514;-77
2023/09/15 08:26:08;;;;;;;0.60;0.10;;;16.60;99.90;;;;;;4978701;28;20497;-77
2023/09/15 08:28:36;;;;;;;0.60;0.20;;;16.70;99.90;;;;;;4985438;28;20453;-76
2023/09/15 08:31:05;;;;;;;0.60;0.10;;;16.80;99.90;;;;;;4981910;28;21004;-79
2023/09/15 08:33:34;;;;;;;0.60;0.10;;;;;;;;;;4986252;28;20464;-82
2023/09/15 08:36:03;;;;;;;0.60;0.10;;;16.80;99.90;;;;;;4984131;28;20526;-76
2023/09/15 08:38:33;;;;;;;0.60;0.10;;;;;;;;;;4992227;28;20464;-82
2023/09/15 08:41:06;;;;;;;0.60;0.10;;;17.00;99.90;;;;;;4985010;28;20563;-77
2023/09/15 08:43:35;;;;;;;0.60;0.10;;;17.00;99.90;;;;;;4977127;28;20450;-71
2023/09/15 08:46:05;;;;;;;0.60;0.10;;;17.00;99.90;;;;;;4976344;28;20580;-71
2023/09/15 08:48:39;;;;;;;0.60;0.10;;;17.10;99.90;;;;;;4977332;28;20445;-72
2023/09/15 08:51:08;;;;;;;0.77;0.37;;;17.30;99.90;;;;;;4977374;28;20476;-73
2023/09/15 08:53:38;;;;;;;0.60;0.10;;;17.40;99.90;;;;;;4977663;28;20453;-73
2023/09/15 08:56:06;;;;;;;0.70;0.40;;;17.40;99.90;;;;;;4979656;28;20461;-75
2023/09/15 08:58:34;;;;;;;1.03;0.77;;;17.40;99.90;;;;;;4979914;28;20545;-75
2023/09/15 09:01:07;;;;;;;0.60;0.10;;;17.40;99.90;;;;;;4975408;28;20480;-75
2023/09/15 09:03:37;;;;;;;0.70;0.30;;;17.40;99.90;;;;;;4975405;28;20457;-75
2023/09/15 09:06:09;;;;;;;0.93;0.83;;;17.50;99.90;;;;;;4981179;28;20485;-76
2023/09/15 09:08:42;;;;;;;0.60;0.20;;;17.50;99.90;;;;;;4975170;28;20453;-74
2023/09/15 09:11:10;;;;;;;0.60;0.10;;;17.40;99.90;;;;;;4980828;28;20562;-75
2023/09/15 09:13:39;;;;;;;0.60;0.20;;;17.50;99.90;;;;;;4974777;28;20951;-75
2023/09/15 09:16:14;;;;;;;0.70;0.40;;;17.50;99.90;;;;;;4972062;28;20461;-75
2023/09/15 09:18:42;;;;;;;1.13;1.03;;;17.60;99.90;;;;;;4982268;28;20472;-76
2023/09/15 09:21:10;;;;;;;0.90;0.47;;;17.70;99.90;;;;;;4983746;28;20507;-76
2023/09/15 09:23:39;;;;;;;0.60;0.10;;;17.80;99.90;;;;;;4978516;28;20533;-75
2023/09/15 09:26:12;;;;;;;0.60;0.20;;;17.90;99.90;;;;;;4975124;28;20548;-75
2023/09/15 09:28:40;;;;;;;0.60;0.10;;;18.00;99.90;;;;;;4979104;28;21344;-76
2023/09/15 09:31:09;;;;;;;0.60;0.13;;;18.10;99.90;;;;;;4991018;28;20995;-77
2023/09/15 09:33:38;;;;;;;0.60;0.20;;;18.10;99.90;;;;;;4975879;28;20453;-76
2023/09/15 09:36:11;;;;;;;0.60;0.20;;;18.10;99.90;;;;;;4979614;28;20487;-73
2023/09/15 09:38:45;;;;;;;5.23;4.93;;;18.10;99.90;;;;;;4983961;28;20442;-76
2023/09/15 09:41:15;;;;;;;0.60;0.10;;;18.10;99.90;;;;;;4988985;28;20481;-75
2023/09/15 09:43:46;;;;;;;0.60;0.20;;;18.20;99.90;;;;;;4995520;28;20970;-75
2023/09/15 09:46:16;;;;;;;0.80;0.67;;;18.30;99.90;;;;;;4994123;28;20577;-75
2023/09/15 09:48:45;;;;;;;3.20;3.00;;;18.40;99.90;;;;;;4990679;28;20888;-75
2023/09/15 09:51:14;;;;;;;0.60;0.10;;;18.50;99.90;;;;;;4989979;28;20497;-76
2023/09/15 09:53:44;;;;;;;1.57;1.47;;;18.60;99.90;;;;;;4991183;28;20529;-75
2023/09/15 09:56:12;;;;;;;0.60;0.20;;;18.70;99.90;;;;;;4992954;28;20529;-76
2023/09/15 09:58:40;;;;;;;0.60;0.23;;;18.80;99.90;;;;;;4990867;28;20433;-75
2023/09/15 10:01:11;;;;;;;0.60;0.20;;;18.80;99.90;;;;;;4992160;28;20478;-76
2023/09/15 10:03:40;;;;;;;0.80;0.30;;;18.90;99.90;;;;;;4979666;28;20493;-75
2023/09/15 10:06:08;;;;;;;0.60;0.10;;;18.90;99.90;;;;;;4979868;28;20453;-76
2023/09/15 10:08:39;;;;;;;0.60;0.20;;;19.20;99.90;;;;;;4990363;28;20454;-76
2023/09/15 10:11:10;;;;;;;0.60;0.10;;;19.20;99.90;;;;;;4986287;28;20499;-76
2023/09/15 10:13:39;;;;;;;0.60;0.10;;;19.30;99.60;;;;;;4982509;28;20469;-75
2023/09/15 10:16:09;;;;;;;1.90;0.50;;;19.30;99.60;;;;;;4973643;28;20463;-75
2023/09/15 10:18:38;;;;;;;1.03;0.93;;;19.40;98.10;;;;;;4976468;28;20441;-76
2023/09/15 10:21:07;;;;;;;0.60;0.10;;;19.40;96.70;;;;;;4982360;28;20544;-76
2023/09/15 10:23:36;;;;;;;0.60;0.10;;;19.50;96.70;;;;;;4982092;28;20446;-75
2023/09/15 10:26:04;;;;;;;0.60;0.10;;;19.60;97.50;;;;;;4984445;28;20441;-75
2023/09/15 10:28:34;;;;;;;0.60;0.10;;;19.60;99.90;;;;;;4984568;28;20843;-75
2023/09/15 10:31:05;;;;;;;0.60;0.30;;;19.80;96.60;;;;;;4984253;28;20547;-75
2023/09/15 10:33:39;;;;;;;0.60;0.10;;;19.80;99.90;;;;;;4982317;28;20536;-78
2023/09/15 10:36:11;;;;;;;0.60;0.10;;;20.00;94.50;;;;;;4975353;28;20450;-75
2023/09/15 10:38:41;;;;;;;0.80;0.43;;;20.10;94.50;;;;;;4981939;28;20449;-77
2023/09/15 10:41:10;;;;;;;0.60;0.10;;;20.10;92.50;;;;;;4978186;28;20502;-78
2023/09/15 10:43:50;;;;;;;1.63;1.40;;;21.50;97.50;;;;;;4982511;28;20454;-76
2023/09/15 10:46:18;;;;;;;0.60;0.10;;;20.20;90.60;;;;;;4977619;28;20532;-77
2023/09/15 10:48:47;;;;;;;1.27;1.17;;;20.20;90.80;;;;;;4974565;28;20856;-76
2023/09/15 10:51:18;;;;;;;0.60;0.20;;;20.30;91.00;;;;;;4976301;28;20550;-75
2023/09/15 10:53:50;;;;;;;0.60;0.10;;;20.40;91.20;;;;;;4973837;28;20488;-76
2023/09/15 10:56:20;;;;;;;0.60;0.10;;;20.50;88.80;;;;;;4973017;28;20826;-76
2023/09/15 10:58:49;;;;;;;0.60;0.20;;;20.40;85.20;;;;;;4979252;28;20500;-77
2023/09/15 11:01:19;;;;;;;0.60;0.10;;;20.40;85.30;;;;;;4979005;28;20486;-74
2023/09/15 11:03:47;;;;;;;0.60;0.10;;;20.60;85.40;;;;;;4979877;28;21063;-75
2023/09/15 11:06:16;;;;;;;0.60;0.10;;;20.70;85.60;;;;;;4972935;28;20501;-76
2023/09/15 11:08:45;;;;;;;0.60;0.20;;;20.80;84.70;;;;;;4973093;28;20485;-76
2023/09/15 11:11:16;;;;;;;0.60;0.10;;;20.80;80.30;;;;;;4973311;28;20520;-78
2023/09/15 11:13:45;;;;;;;0.70;0.50;;;20.80;80.60;;;;;;4988864;28;20490;-78
2023/09/15 11:16:14;;;;;;;0.60;0.20;;;20.80;91.20;;;;;;5002902;28;21005;-76
2023/09/15 11:18:45;;;;;;;0.60;0.10;;;20.90;79.10;;;;;;4983376;28;20509;-76
2023/09/15 11:21:16;;;;;;;0.60;0.10;;;21.10;76.30;;;;;;4984853;28;20468;-78
2023/09/15 11:23:46;;;;;;;0.60;0.20;;;21.10;75.40;;;;;;4980952;28;20480;-74
2023/09/15 11:26:15;;;;;;;0.60;0.10;;;22.70;88.80;;;;;;4983186;28;20511;-76
2023/09/15 11:28:55;;;;;;;0.60;0.20;;;21.30;72.50;;;;;;4981123;28;20493;-75
2023/09/15 11:31:26;;;;;;;0.60;0.10;;;21.40;70.60;;;;;;4990790;28;20506;-76
2023/09/15 11:33:55;;;;;;;0.70;0.30;;;21.40;67.00;;;;;;4983639;28;20477;-75
2023/09/15 11:36:24;;;;;;;0.60;0.10;;;21.40;66.30;;;;;;4977249;28;20454;-75
2023/09/15 11:38:53;;;;;;;0.60;0.10;;;;;;;;;;4981379;28;20442;-75
2023/09/15 11:41:29;;;;;;;0.60;0.20;;;21.60;66.90;;;;;;4975282;28;20999;-74
2023/09/15 11:43:58;;;;;;;1.13;0.73;;;21.60;78.10;;;;;;4980677;28;20453;-76
2023/09/15 11:46:28;;;;;;;0.80;0.77;;;21.60;62.20;;;;;;4982569;28;20453;-76
2023/09/15 11:48:57;;;;;;;0.60;0.10;;;21.60;73.50;;;;;;4977840;28;20477;-76
2023/09/15 11:51:25;;;;;;;1.33;1.23;;;21.90;61.90;;;;;;4981464;28;20490;-77
2023/09/15 11:53:53;;;;;;;0.60;0.20;;;21.90;60.10;;;;;;4982346;28;20462;-77
2023/09/15 11:56:21;;;;;;;1.27;0.60;;;;;;;;;;4980096;28;20484;-76
2023/09/15 11:58:52;;;;;;;0.60;0.10;;;22.00;50.10;;;;;;4980717;28;21438;-77
2023/09/15 12:01:22;;;;;;;0.60;0.17;;;22.10;49.50;;;;;;4976741;28;20934;-76
2023/09/15 12:03:53;;;;;;;1.13;1.03;;;22.20;46.80;;;;;;4984236;28;20460;-76
2023/09/15 12:06:22;;;;;;;2.33;2.13;;;22.20;46.60;;;;;;4980652;28;20445;-75
2023/09/15 12:08:52;;;;;;;1.27;0.73;;;22.10;31.80;;;;;;4974843;28;20492;-76
2023/09/15 12:11:20;;;;;;;0.60;0.10;;;22.20;31.30;;;;;;4975750;28;20497;-75
2023/09/15 12:13:51;;;;;;;0.60;0.20;;;22.20;30.00;;;;;;4979136;28;20905;-74
2023/09/15 12:16:22;;;;;;;0.60;0.20;;;22.20;28.80;;;;;;4973147;28;20454;-75
2023/09/15 12:18:52;;;;;;;0.60;0.10;;;22.30;30.80;;;;;;4980941;28;20965;-76
2023/09/15 12:21:24;;;;;;;0.60;0.10;;;22.40;30.40;;;;;;4984762;28;20492;-75
2023/09/15 12:23:55;;;;;;;1.33;1.23;;;22.50;29.80;;;;;;4979833;28;20465;-76
2023/09/15 12:26:24;;;;;;;0.90;0.30;;;22.50;39.30;;;;;;4981936;28;20498;-74
2023/09/15 12:28:53;;;;;;;0.70;0.37;;;;;;;;;;4973798;28;20545;-74
2023/09/15 12:31:22;;;;;;;0.73;0.50;;;;;;;;;;4980510;28;20492;-74
2023/09/15 12:33:55;;;;;;;0.60;0.20;;;22.60;27.80;;;;;;4984154;28;20851;-74
2023/09/15 12:36:25;;;;;;;0.93;0.40;;;22.60;38.10;;;;;;4980539;28;20482;-75
2023/09/15 12:38:52;;;;;;;0.60;0.10;;;22.80;27.60;;;;;;4980225;28;20447;-75
2023/09/15 12:41:21;;;;;;;0.60;0.10;;;22.90;25.50;;;;;;4973937;28;20544;-75
2023/09/15 12:43:49;;;;;;;0.60;0.17;;;22.90;20.50;;;;;;4981343;28;20442;-71
2023/09/15 12:46:17;;;;;;;0.60;0.20;;;;;;;;;;4977247;28;20818;-71
2023/09/15 12:48:46;;;;;;;0.60;0.10;;;;;;;;;;4976920;28;20572;-71
2023/09/15 12:51:15;;;;;;;0.60;0.20;;;23.00;16.10;;;;;;4980890;28;20603;-72
2023/09/15 12:53:43;;;;;;;0.60;0.20;;;23.00;25.20;;;;;;4989450;28;20434;-72
